Time;durP1;ratioP1;P1;durP2;ratioP2;P2;SDS_P1;SDS_P2;PMS_P1;PMS_P2;Temp;Humidity;BMP_temperature;BMP_pressure;BME280_temperature;BME280_humidity;BME280_pressure;Samples;Min_cycle;Max_cycle;Signal;HPM_P1;HPM_P2
2023/03/04 00:00:55;;;;;;;112.33;100.40;;;1.30;99.90;;;;;;5110101;28;20350;-50
2023/03/04 00:03:23;;;;;;;251.47;221.93;;;1.30;99.90;;;;;;5095221;28;20302;-51
2023/03/04 00:05:51;;;;;;;262.77;235.93;;;1.30;99.90;;;;;;5089842;28;20270;-51
2023/03/04 00:08:19;;;;;;;341.80;253.17;;;1.30;99.90;;;;;;5089820;28;20445;-51
2023/03/04 00:10:47;;;;;;;211.13;189.73;;;1.30;99.90;;;;;;5089205;28;20238;-50
2023/03/04 00:13:19;;;;;;;219.97;161.20;;;1.30;99.90;;;;;;5090033;28;20255;-51
2023/03/04 00:15:47;;;;;;;412.13;316.13;;;1.30;99.90;;;;;;5090019;28;20221;-50
2023/03/04 00:18:15;;;;;;;189.43;173.00;;;1.30;99.90;;;;;;5090012;28;20302;-58
2023/03/04 00:20:43;;;;;;;138.87;126.00;;;1.40;99.90;;;;;;5093616;28;20311;-51
2023/03/04 00:23:11;;;;;;;145.83;131.40;;;1.40;99.90;;;;;;5095921;28;20212;-51
2023/03/04 00:25:39;;;;;;;157.30;141.23;;;1.40;99.90;;;;;;5095630;28;20359;-51
2023/03/04 00:28:10;;;;;;;188.27;151.77;;;1.40;99.90;;;;;;5090462;28;20208;-51
2023/03/04 00:30:39;;;;;;;413.43;335.70;;;1.50;99.90;;;;;;5089303;28;20330;-51
2023/03/04 00:33:07;;;;;;;275.83;221.00;;;1.40;99.90;;;;;;5090048;28;20291;-50
2023/03/04 00:35:35;;;;;;;360.23;315.50;;;1.30;99.90;;;;;;5092090;28;20236;-50
2023/03/04 00:38:03;;;;;;;311.80;250.33;;;1.40;99.90;;;;;;5109809;28;20285;-50
2023/03/04 00:40:31;;;;;;;213.80;189.10;;;1.40;99.90;;;;;;5109650;28;20339;-50
2023/03/04 00:42:59;;;;;;;225.67;197.20;;;1.30;99.90;;;;;;5110225;28;20959;-51
2023/03/04 00:45:27;;;;;;;416.00;258.20;;;1.40;99.90;;;;;;5109962;28;20298;-51
2023/03/04 00:47:56;;;;;;;207.13;176.00;;;1.40;99.90;;;;;;5109672;28;20252;-51
2023/03/04 00:50:24;;;;;;;282.70;233.30;;;1.30;99.90;;;;;;5099053;28;20251;-50
2023/03/04 00:52:52;;;;;;;224.57;204.43;;;1.40;99.90;;;;;;5108351;28;20207;-51
2023/03/04 00:55:20;;;;;;;188.50;170.40;;;1.40;99.90;;;;;;5104011;28;20246;-50
2023/03/04 00:57:48;;;;;;;251.97;226.67;;;1.40;99.90;;;;;;5107236;28;20715;-50
2023/03/04 01:00:17;;;;;;;308.33;274.93;;;1.40;99.90;;;;;;5098708;28;20238;-49
2023/03/04 01:02:45;;;;;;;159.87;133.23;;;1.40;99.90;;;;;;5109340;28;20298;-51
2023/03/04 01:05:15;;;;;;;249.57;226.87;;;1.50;99.90;;;;;;5109960;28;20204;-51
2023/03/04 01:07:44;;;;;;;374.00;334.33;;;1.50;99.90;;;;;;5109505;28;20234;-48
2023/03/04 01:10:15;;;;;;;436.07;306.87;;;1.50;99.90;;;;;;5107617;28;20327;-51
2023/03/04 01:12:43;;;;;;;389.63;271.50;;;1.50;99.90;;;;;;5103432;28;20298;-50
2023/03/04 01:15:13;;;;;;;196.87;177.87;;;1.40;99.90;;;;;;5084490;28;20650;-50
2023/03/04 01:17:41;;;;;;;320.33;286.57;;;1.50;99.90;;;;;;5113605;28;20335;-49
2023/03/04 01:20:10;;;;;;;228.93;206.67;;;1.50;99.90;;;;;;5113297;28;20314;-50
2023/03/04 01:22:40;;;;;;;163.80;141.03;;;1.50;99.90;;;;;;5113432;28;20292;-51
2023/03/04 01:25:09;;;;;;;158.73;142.90;;;1.50;99.90;;;;;;5113858;28;20227;-50
2023/03/04 01:27:37;;;;;;;162.73;146.40;;;1.50;99.90;;;;;;5105817;28;20279;-49
2023/03/04 01:30:06;;;;;;;151.70;138.27;;;1.50;99.90;;;;;;5109934;28;20247;-49
2023/03/04 01:32:34;;;;;;;174.37;156.50;;;1.60;99.90;;;;;;5108373;28;20206;-50
2023/03/04 01:35:02;;;;;;;228.37;203.60;;;1.40;99.90;;;;;;5101063;28;20662;-50
2023/03/04 01:37:30;;;;;;;288.53;212.90;;;1.40;99.90;;;;;;5110900;28;20747;-49
2023/03/04 01:39:59;;;;;;;164.87;148.83;;;1.40;99.90;;;;;;5112915;28;20302;-51
2023/03/04 01:42:32;;;;;;;267.33;239.77;;;1.50;99.90;;;;;;5113264;28;20365;-51
2023/03/04 01:45:00;;;;;;;262.47;224.57;;;1.50;99.90;;;;;;5109934;28;20636;-50
2023/03/04 01:47:31;;;;;;;320.23;277.33;;;1.50;99.90;;;;;;5113130;28;20288;-50
2023/03/04 01:50:01;;;;;;;397.57;355.00;;;1.50;99.90;;;;;;5101377;28;20224;-51
2023/03/04 01:52:29;;;;;;;152.33;137.57;;;1.50;99.90;;;;;;5113200;28;20211;-50
2023/03/04 01:54:59;;;;;;;276.13;214.13;;;1.50;99.90;;;;;;5112882;28;20239;-49
2023/03/04 01:57:27;;;;;;;360.27;277.53;;;1.50;99.90;;;;;;5099700;28;20766;-51
2023/03/04 02:00:30;;;;;;;228.10;203.43;;;1.50;99.90;;;;;;5112075;28;20230;-51
2023/03/04 02:03:00;;;;;;;207.03;189.17;;;1.50;99.90;;;;;;5029050;28;20754;-50
2023/03/04 02:05:29;;;;;;;310.50;282.00;;;1.50;99.90;;;;;;5087838;28;20291;-51
2023/03/04 02:08:00;;;;;;;226.67;204.43;;;1.50;99.90;;;;;;5109014;28;20944;-50
2023/03/04 02:10:30;;;;;;;141.33;125.90;;;1.60;99.90;;;;;;5112201;28;20249;-51
2023/03/04 02:12:59;;;;;;;341.67;245.60;;;1.60;99.90;;;;;;5112328;28;20329;-51
2023/03/04 02:15:28;;;;;;;314.83;231.70;;;1.50;99.90;;;;;;5112609;28;20235;-50
2023/03/04 02:17:55;;;;;;;180.40;160.63;;;1.50;99.90;;;;;;5112154;28;20273;-51
2023/03/04 02:20:35;;;;;;;189.50;171.07;;;1.50;99.90;;;;;;5112093;28;20298;-51
2023/03/04 02:23:11;;;;;;;422.10;377.93;;;1.60;99.90;;;;;;5112182;28;20299;-50
2023/03/04 02:25:47;;;;;;;277.90;220.10;;;1.60;99.90;;;;;;5107110;28;20285;-50
2023/03/04 02:28:16;;;;;;;131.50;117.97;;;1.60;99.90;;;;;;5107778;28;20660;-49
2023/03/04 02:30:45;;;;;;;250.03;207.23;;;1.60;99.90;;;;;;5111847;28;20261;-51
2023/03/04 02:33:17;;;;;;;208.40;189.57;;;1.60;99.90;;;;;;5111759;28;20743;-50
2023/03/04 02:35:46;;;;;;;321.43;273.40;;;1.60;99.90;;;;;;5097390;28;20671;-51
2023/03/04 02:38:14;;;;;;;155.23;139.57;;;1.60;99.90;;;;;;5112375;28;20236;-51
2023/03/04 02:40:46;;;;;;;219.83;197.53;;;1.60;99.90;;;;;;5111370;28;20318;-50
2023/03/04 02:43:16;;;;;;;322.53;244.77;;;1.60;99.90;;;;;;5112147;28;20304;-50
2023/03/04 02:45:46;;;;;;;217.47;195.10;;;1.60;99.90;;;;;;5111795;28;20295;-49
2023/03/04 02:48:15;;;;;;;287.73;227.30;;;1.60;99.90;;;;;;5111706;28;20660;-51
2023/03/04 02:50:46;;;;;;;173.93;157.07;;;1.60;99.90;;;;;;5107504;28;20237;-50
2023/03/04 02:53:15;;;;;;;197.77;165.00;;;1.60;99.90;;;;;;5091266;28;20205;-51
2023/03/04 02:55:43;;;;;;;125.87;103.83;;;1.60;99.90;;;;;;5079242;28;20295;-50
2023/03/04 02:58:12;;;;;;;176.50;144.17;;;1.60;99.90;;;;;;5090269;28;20780;-50
2023/03/04 03:00:41;;;;;;;305.77;273.63;;;1.60;99.90;;;;;;5090632;28;20583;-49
2023/03/04 03:03:09;;;;;;;157.20;141.97;;;1.50;99.90;;;;;;5090923;28;20632;-50
2023/03/04 03:05:38;;;;;;;161.43;127.03;;;1.60;99.90;;;;;;5090766;28;20839;-50
2023/03/04 03:08:06;;;;;;;235.50;205.83;;;1.60;99.90;;;;;;5077072;28;20250;-51
2023/03/04 03:10:35;;;;;;;403.63;346.50;;;1.60;99.90;;;;;;5090548;28;20250;-50
2023/03/04 03:13:03;;;;;;;180.97;148.40;;;1.60;99.90;;;;;;5090886;28;20235;-50
2023/03/04 03:15:31;;;;;;;210.47;187.93;;;1.60;99.90;;;;;;5091050;28;20894;-51
2023/03/04 03:18:00;;;;;;;322.57;291.27;;;1.60;99.90;;;;;;5090699;28;20263;-50
2023/03/04 03:20:28;;;;;;;285.13;257.10;;;1.70;99.90;;;;;;5090397;28;20346;-49
2023/03/04 03:22:56;;;;;;;190.53;135.03;;;1.70;99.90;;;;;;5090776;28;20291;-50
2023/03/04 03:25:24;;;;;;;202.27;180.23;;;1.60;99.90;;;;;;5090547;28;20209;-50
2023/03/04 03:27:52;;;;;;;155.80;140.90;;;1.60;99.90;;;;;;5090555;28;20296;-50
2023/03/04 03:30:20;;;;;;;190.63;165.97;;;1.70;99.90;;;;;;5090767;28;20318;-50
2023/03/04 03:32:48;;;;;;;126.63;113.23;;;1.60;99.90;;;;;;5090632;28;20217;-51
2023/03/04 03:35:18;;;;;;;157.47;141.83;;;1.60;99.90;;;;;;5090288;28;20705;-51
2023/03/04 03:37:47;;;;;;;189.23;171.43;;;1.70;99.90;;;;;;5090577;28;20221;-51
2023/03/04 03:40:16;;;;;;;182.20;165.67;;;1.70;99.90;;;;;;5090170;28;20224;-50
2023/03/04 03:42:44;;;;;;;221.80;198.33;;;1.70;99.90;;;;;;5090037;28;20204;-50
2023/03/04 03:45:12;;;;;;;106.83;88.23;;;1.60;99.90;;;;;;5090450;28;20208;-50
2023/03/04 03:47:40;;;;;;;168.37;150.57;;;1.70;99.90;;;;;;5090570;28;20250;-51
2023/03/04 03:50:09;;;;;;;412.20;310.30;;;1.70;99.90;;;;;;5089770;28;20314;-50
2023/03/04 03:52:39;;;;;;;121.90;106.60;;;1.80;99.90;;;;;;5090442;28;20230;-50
2023/03/04 03:55:07;;;;;;;174.00;159.53;;;1.70;99.90;;;;;;5089962;28;20303;-50
2023/03/04 03:57:35;;;;;;;173.73;156.00;;;1.70;99.90;;;;;;5089918;28;20292;-49
2023/03/04 04:00:04;;;;;;;155.33;142.00;;;1.70;99.90;;;;;;5089768;28;20239;-51
2023/03/04 04:02:32;;;;;;;182.17;163.13;;;1.70;99.90;;;;;;5089821;28;20205;-51
2023/03/04 04:05:00;;;;;;;134.03;120.23;;;1.70;99.90;;;;;;5089951;28;20216;-50
2023/03/04 04:07:28;;;;;;;175.73;159.67;;;1.80;99.90;;;;;;5089394;28;20318;-50
2023/03/04 04:09:57;;;;;;;224.30;202.97;;;1.80;99.90;;;;;;5089949;28;20331;-51
2023/03/04 04:12:25;;;;;;;211.10;189.67;;;1.80;99.90;;;;;;5089722;28;20215;-48
2023/03/04 04:14:53;;;;;;;220.73;200.50;;;1.70;99.90;;;;;;5089947;28;20687;-50
2023/03/04 04:17:21;;;;;;;160.77;144.77;;;1.80;99.90;;;;;;5089540;28;20211;-51
2023/03/04 04:19:49;;;;;;;256.23;228.83;;;1.80;99.90;;;;;;5089578;28;20311;-51
2023/03/04 04:22:20;;;;;;;102.80;80.40;;;1.80;99.90;;;;;;5089647;28;20300;-50
2023/03/04 04:24:48;;;;;;;184.47;122.67;;;1.80;99.90;;;;;;5089641;28;20296;-50
2023/03/04 04:27:18;;;;;;;200.73;181.27;;;1.60;99.90;;;;;;5089837;28;20216;-50
2023/03/04 04:29:46;;;;;;;232.87;208.47;;;1.60;99.90;;;;;;5088439;28;20247;-50
2023/03/04 04:32:14;;;;;;;227.43;203.53;;;1.70;99.90;;;;;;5089507;28;20295;-51
2023/03/04 04:34:42;;;;;;;175.27;150.93;;;1.80;99.90;;;;;;5089147;28;20200;-51
2023/03/04 04:37:10;;;;;;;252.87;223.13;;;1.80;99.90;;;;;;5089764;28;20572;-50
2023/03/04 04:39:38;;;;;;;198.20;157.87;;;1.70;99.90;;;;;;5088802;28;20324;-51
2023/03/04 04:42:06;;;;;;;272.17;242.57;;;1.80;99.90;;;;;;5089702;28;20236;-51
2023/03/04 04:44:37;;;;;;;151.23;137.13;;;1.80;99.90;;;;;;5089425;28;20696;-50
2023/03/04 04:47:06;;;;;;;131.73;119.27;;;1.80;99.90;;;;;;5089388;28;20209;-50
2023/03/04 04:49:34;;;;;;;332.53;202.17;;;1.90;99.90;;;;;;5091347;28;20920;-51
2023/03/04 04:52:02;;;;;;;228.80;177.53;;;1.80;99.90;;;;;;5093546;28;20689;-51
2023/03/04 04:54:30;;;;;;;152.47;137.67;;;1.80;99.90;;;;;;5093804;28;20243;-50
2023/03/04 04:56:58;;;;;;;317.50;285.63;;;1.80;99.90;;;;;;5093342;28;20719;-50
2023/03/04 04:59:26;;;;;;;171.40;153.23;;;1.80;99.90;;;;;;5093446;28;20314;-50
2023/03/04 05:01:55;;;;;;;162.03;145.20;;;1.80;99.90;;;;;;5089603;28;20239;-49
2023/03/04 05:04:23;;;;;;;232.27;207.37;;;1.80;99.90;;;;;;5098306;28;20204;-51
2023/03/04 05:06:51;;;;;;;175.70;158.67;;;1.90;99.90;;;;;;5099905;28;20240;-50
2023/03/04 05:09:21;;;;;;;170.50;153.83;;;1.90;99.90;;;;;;5097467;28;20673;-51
2023/03/04 05:11:49;;;;;;;163.50;146.73;;;1.90;99.90;;;;;;5094115;28;20213;-51
2023/03/04 05:14:18;;;;;;;279.90;252.40;;;1.90;99.90;;;;;;5093472;28;20255;-50
2023/03/04 05:16:46;;;;;;;218.07;197.80;;;1.90;99.90;;;;;;5093892;28;20202;-50
2023/03/04 05:19:15;;;;;;;213.70;190.53;;;1.90;99.90;;;;;;5093575;28;20307;-50
2023/03/04 05:21:43;;;;;;;92.90;77.70;;;1.90;99.90;;;;;;5093523;28;20287;-51
2023/03/04 05:24:11;;;;;;;156.17;141.57;;;1.90;99.90;;;;;;5093671;28;20204;-51
2023/03/04 05:26:39;;;;;;;153.00;136.60;;;1.80;99.90;;;;;;5093304;28;20663;-50
2023/03/04 05:29:07;;;;;;;322.83;229.93;;;1.90;99.90;;;;;;5093260;28;20294;-51
2023/03/04 05:31:35;;;;;;;196.07;174.93;;;1.90;99.90;;;;;;5092720;28;20323;-50
2023/03/04 05:34:03;;;;;;;125.40;111.80;;;1.90;99.90;;;;;;5093452;28;20237;-51
2023/03/04 05:36:33;;;;;;;128.30;114.90;;;1.90;99.90;;;;;;5093377;28;20291;-51
2023/03/04 05:39:01;;;;;;;137.33;106.37;;;1.90;99.90;;;;;;5093260;28;20662;-51
2023/03/04 05:41:28;;;;;;;204.13;181.10;;;2.00;99.90;;;;;;5092494;28;20223;-51
2023/03/04 05:43:57;;;;;;;222.70;199.63;;;2.00;99.90;;;;;;5082505;28;20216;-49
2023/03/04 05:46:25;;;;;;;316.37;223.50;;;2.00;99.90;;;;;;5092122;28;20298;-51
2023/03/04 05:48:53;;;;;;;271.60;210.40;;;2.00;99.90;;;;;;5092695;28;20236;-50
2023/03/04 05:51:22;;;;;;;92.57;79.13;;;2.00;99.90;;;;;;5092258;28;20267;-51
2023/03/04 05:53:52;;;;;;;187.70;169.70;;;2.00;99.90;;;;;;5092652;28;20204;-51
2023/03/04 05:56:20;;;;;;;86.77;73.17;;;2.00;99.90;;;;;;5092628;28;20203;-50
2023/03/04 05:58:48;;;;;;;210.33;188.33;;;2.00;99.90;;;;;;5092588;28;20638;-51
2023/03/04 06:01:17;;;;;;;410.53;239.37;;;2.00;99.90;;;;;;5095863;28;20280;-50
2023/03/04 06:03:47;;;;;;;135.83;121.37;;;2.00;99.90;;;;;;5101992;28;20212;-51
2023/03/04 06:06:15;;;;;;;77.03;68.77;;;1.90;99.90;;;;;;5108959;28;20493;-51
2023/03/04 06:08:43;;;;;;;159.93;143.40;;;2.00;99.90;;;;;;5105897;28;20287;-51
2023/03/04 06:11:12;;;;;;;529.13;278.70;;;2.00;99.90;;;;;;5110538;28;20314;-51
2023/03/04 06:13:41;;;;;;;144.43;128.00;;;1.90;99.90;;;;;;5100743;28;20213;-50
2023/03/04 06:16:09;;;;;;;193.90;108.53;;;1.90;99.90;;;;;;5104975;28;20201;-51
2023/03/04 06:18:38;;;;;;;260.10;233.93;;;1.90;99.90;;;;;;5108637;28;20205;-50
2023/03/04 06:21:06;;;;;;;139.57;120.23;;;1.90;99.90;;;;;;5100744;28;20326;-50
2023/03/04 06:23:34;;;;;;;268.57;240.50;;;1.90;99.90;;;;;;5109582;28;20287;-50
2023/03/04 06:26:02;;;;;;;144.20;129.47;;;1.90;99.90;;;;;;5106449;28;20213;-51
2023/03/04 06:28:31;;;;;;;154.90;139.23;;;1.90;99.90;;;;;;5096570;28;20206;-51
2023/03/04 06:30:59;;;;;;;183.73;153.30;;;2.00;99.90;;;;;;5107212;28;20246;-52
2023/03/04 06:33:27;;;;;;;84.97;75.80;;;2.00;99.90;;;;;;5102922;28;20235;-51
2023/03/04 06:35:57;;;;;;;204.87;188.07;;;2.00;99.90;;;;;;5104681;28;20748;-50
2023/03/04 06:38:26;;;;;;;212.80;158.83;;;2.10;99.90;;;;;;5108894;28;20249;-50
2023/03/04 06:40:54;;;;;;;293.77;230.73;;;2.10;99.90;;;;;;5106202;28;20254;-50
2023/03/04 06:43:24;;;;;;;166.77;138.17;;;2.10;99.90;;;;;;5110748;28;20197;-50
2023/03/04 06:45:53;;;;;;;244.33;192.73;;;2.10;99.90;;;;;;5107762;28;20881;-50
2023/03/04 06:48:21;;;;;;;178.03;156.60;;;2.10;99.90;;;;;;5107025;28;20200;-49
2023/03/04 06:50:49;;;;;;;156.03;141.23;;;2.10;99.90;;;;;;5103182;28;20229;-51
2023/03/04 06:53:18;;;;;;;108.27;96.50;;;2.20;99.90;;;;;;5106890;28;20287;-49
2023/03/04 06:55:47;;;;;;;155.30;140.70;;;2.20;99.90;;;;;;5110631;28;20205;-50
2023/03/04 06:58:16;;;;;;;131.57;118.50;;;2.20;99.90;;;;;;5105088;28;20295;-50
2023/03/04 07:00:44;;;;;;;97.77;87.13;;;2.20;99.90;;;;;;5103746;28;20232;-50
2023/03/04 07:03:14;;;;;;;100.70;89.27;;;2.30;99.90;;;;;;5112090;28;20200;-51
2023/03/04 07:05:43;;;;;;;130.73;115.43;;;2.30;99.90;;;;;;5105764;28;20204;-52
2023/03/04 07:08:11;;;;;;;309.33;138.13;;;2.30;99.90;;;;;;5108412;28;20243;-50
2023/03/04 07:10:39;;;;;;;287.90;217.00;;;2.20;99.90;;;;;;5104923;28;20227;-51
2023/03/04 07:13:07;;;;;;;183.90;165.63;;;2.30;99.90;;;;;;5100742;28;20293;-50
2023/03/04 07:15:37;;;;;;;689.13;280.00;;;2.30;99.90;;;;;;5091331;28;20845;-50
2023/03/04 07:18:05;;;;;;;181.03;152.17;;;2.20;99.90;;;;;;5091350;28;20288;-51
2023/03/04 07:20:34;;;;;;;208.17;162.80;;;2.30;99.90;;;;;;5106101;28;20240;-51
2023/03/04 07:23:02;;;;;;;110.33;97.77;;;2.30;99.90;;;;;;5090360;28;20248;-50
2023/03/04 07:25:30;;;;;;;211.10;188.27;;;2.30;99.90;;;;;;5089315;28;20295;-51
2023/03/04 07:27:58;;;;;;;236.57;193.80;;;2.30;99.90;;;;;;5089273;28;20215;-51
2023/03/04 07:30:26;;;;;;;218.80;149.60;;;2.30;99.90;;;;;;5088745;28;20310;-51
2023/03/04 07:32:56;;;;;;;183.17;132.60;;;2.40;99.90;;;;;;5089449;28;20240;-51
2023/03/04 07:35:24;;;;;;;142.90;129.33;;;2.40;99.90;;;;;;5080102;28;20736;-50
2023/03/04 07:37:53;;;;;;;126.60;113.20;;;2.50;99.90;;;;;;5090349;28;20248;-50
2023/03/04 07:40:22;;;;;;;250.37;210.60;;;2.60;99.90;;;;;;5091512;28;20233;-49
2023/03/04 07:42:50;;;;;;;570.73;243.87;;;2.60;99.90;;;;;;5102409;28;20295;-51
2023/03/04 07:45:19;;;;;;;169.80;142.63;;;2.60;99.90;;;;;;5102640;28;20283;-51
2023/03/04 07:47:47;;;;;;;213.10;189.47;;;2.60;99.90;;;;;;5090378;28;20315;-50
2023/03/04 07:50:15;;;;;;;279.33;165.80;;;2.70;99.90;;;;;;5089703;28;20311;-51
2023/03/04 07:52:47;;;;;;;226.67;121.00;;;2.70;99.90;;;;;;5089872;28;20628;-51
2023/03/04 07:55:16;;;;;;;142.93;113.90;;;2.70;99.90;;;;;;5090358;28;20217;-49
2023/03/04 07:57:46;;;;;;;165.23;147.00;;;2.80;99.90;;;;;;5090029;28;20291;-50
2023/03/04 08:00:16;;;;;;;155.37;132.17;;;2.80;99.90;;;;;;5089386;28;20281;-50
2023/03/04 08:02:44;;;;;;;95.57;86.33;;;2.90;99.90;;;;;;5076421;28;20206;-50
2023/03/04 08:05:12;;;;;;;194.67;153.00;;;3.00;99.90;;;;;;5089952;28;20213;-51
2023/03/04 08:07:40;;;;;;;159.63;142.07;;;3.10;99.90;;;;;;5090111;28;20206;-50
2023/03/04 08:10:10;;;;;;;108.93;97.90;;;3.20;99.90;;;;;;5090648;28;20327;-50
2023/03/04 08:12:39;;;;;;;117.30;105.03;;;3.40;99.90;;;;;;5099654;28;20338;-51
2023/03/04 08:15:08;;;;;;;227.43;141.13;;;3.40;99.90;;;;;;5091759;28;20207;-49
2023/03/04 08:17:36;;;;;;;322.40;186.10;;;3.40;99.90;;;;;;5103783;28;20306;-51
2023/03/04 08:20:05;;;;;;;159.40;105.93;;;3.40;99.90;;;;;;5096683;28;20231;-50
2023/03/04 08:22:33;;;;;;;102.53;91.30;;;3.40;99.90;;;;;;5098630;28;20227;-50
2023/03/04 08:25:01;;;;;;;186.37;139.43;;;3.40;99.90;;;;;;5088362;28;20204;-50
2023/03/04 08:27:29;;;;;;;89.47;72.40;;;3.40;99.90;;;;;;5094280;28;20608;-50
2023/03/04 08:29:58;;;;;;;187.37;147.07;;;3.50;99.90;;;;;;5087258;28;20796;-50
2023/03/04 08:32:26;;;;;;;368.93;152.87;;;3.50;99.90;;;;;;5081741;28;20203;-50
2023/03/04 08:34:55;;;;;;;405.87;173.47;;;3.50;99.90;;;;;;5088794;28;20247;-50
2023/03/04 08:37:23;;;;;;;52.37;42.53;;;3.50;99.90;;;;;;5086164;28;20212;-50
2023/03/04 08:39:52;;;;;;;52.90;44.57;;;3.60;99.90;;;;;;5086802;28;20263;-50
2023/03/04 08:42:19;;;;;;;167.80;144.13;;;3.60;99.90;;;;;;5088605;28;20219;-49
2023/03/04 08:44:47;;;;;;;85.73;73.50;;;3.60;99.90;;;;;;5088887;28;20768;-51
2023/03/04 08:47:17;;;;;;;105.40;79.73;;;3.70;99.90;;;;;;5088912;28;20208;-50
2023/03/04 08:49:45;;;;;;;130.60;106.97;;;3.80;99.90;;;;;;5084748;28;20309;-50
2023/03/04 08:52:13;;;;;;;138.80;64.07;;;3.80;99.90;;;;;;5089049;28;20249;-49
2023/03/04 08:54:41;;;;;;;103.13;80.17;;;3.80;99.90;;;;;;5089171;28;20286;-49
2023/03/04 08:57:09;;;;;;;84.20;74.83;;;4.00;99.90;;;;;;5088236;28;21001;-50
2023/03/04 08:59:37;;;;;;;1999.90;503.57;;;4.10;99.90;;;;;;5088779;28;20219;-50
2023/03/04 09:02:05;;;;;;;1999.90;603.23;;;4.20;99.90;;;;;;5088195;28;20786;-50
2023/03/04 09:04:35;;;;;;;1647.97;406.67;;;4.20;99.90;;;;;;5090439;28;20679;-50
2023/03/04 09:07:03;;;;;;;394.90;160.93;;;4.20;99.90;;;;;;5092624;28;20290;-50
2023/03/04 09:09:31;;;;;;;750.53;265.40;;;4.30;99.90;;;;;;5086367;28;20287;-50
2023/03/04 09:11:59;;;;;;;118.27;72.17;;;4.50;99.90;;;;;;5088831;28;20287;-51
2023/03/04 09:14:27;;;;;;;196.97;94.93;;;4.70;99.90;;;;;;5088156;28;20290;-50
2023/03/04 09:16:55;;;;;;;112.10;72.10;;;5.00;99.90;;;;;;5085690;28;20640;-51
2023/03/04 09:19:23;;;;;;;316.63;162.37;;;5.20;99.90;;;;;;5088670;28;20304;-51
2023/03/04 09:21:54;;;;;;;344.70;223.80;;;5.40;99.90;;;;;;5088556;28;20266;-50
2023/03/04 09:24:22;;;;;;;1077.73;428.53;;;5.40;99.90;;;;;;5087677;28;20299;-51
2023/03/04 09:26:51;;;;;;;1849.23;563.80;;;5.40;99.90;;;;;;5081451;28;20319;-50
2023/03/04 09:29:19;;;;;;;1013.00;391.27;;;5.50;99.90;;;;;;5082316;28;20669;-51
2023/03/04 09:31:47;;;;;;;128.60;114.87;;;5.50;99.90;;;;;;5084049;28;20291;-50
2023/03/04 09:34:16;;;;;;;1268.80;340.63;;;5.60;99.90;;;;;;5086973;28;20202;-50
2023/03/04 09:36:44;;;;;;;294.17;214.87;;;5.70;99.90;;;;;;5088615;28;20214;-50
2023/03/04 09:39:13;;;;;;;794.03;464.07;;;5.80;99.90;;;;;;5090853;28;20925;-51
2023/03/04 09:41:45;;;;;;;592.47;379.17;;;5.80;99.90;;;;;;5091026;28;20247;-50
2023/03/04 09:44:22;;;;;;;944.97;410.90;;;5.80;99.90;;;;;;5092308;28;20246;-49
2023/03/04 09:46:53;;;;;;;464.70;344.10;;;5.80;99.90;;;;;;5092117;28;20211;-51
2023/03/04 09:49:22;;;;;;;644.20;351.33;;;5.80;99.90;;;;;;5090566;28;20265;-52
2023/03/04 09:51:58;;;;;;;455.23;274.20;;;5.90;99.90;;;;;;5090670;28;20219;-51
2023/03/04 09:54:51;;;;;;;220.10;172.83;;;6.00;99.90;;;;;;5092421;28;20301;-51
2023/03/04 09:57:28;;;;;;;1090.30;503.00;;;6.10;99.90;;;;;;5104204;28;20207;-50
2023/03/04 10:00:06;;;;;;;1648.20;567.33;;;6.10;99.90;;;;;;5097700;28;20258;-50
2023/03/04 10:02:44;;;;;;;585.73;293.93;;;6.30;99.90;;;;;;5092699;28;20274;-50
2023/03/04 10:05:18;;;;;;;1833.27;606.73;;;6.40;99.90;;;;;;5089927;28;20228;-50
2023/03/04 10:07:52;;;;;;;1999.90;744.57;;;6.50;99.90;;;;;;5093312;28;20584;-51
2023/03/04 10:10:26;;;;;;;994.57;547.53;;;6.50;99.90;;;;;;5090445;28;20319;-51
2023/03/04 10:12:56;;;;;;;1999.90;916.93;;;6.60;99.90;;;;;;5090588;28;20677;-50
2023/03/04 10:15:31;;;;;;;1954.93;648.20;;;6.60;99.90;;;;;;5090838;28;20208;-50
2023/03/04 10:18:07;;;;;;;1999.90;999.90;;;6.70;99.90;;;;;;5090944;28;20700;-51
2023/03/04 10:20:48;;;;;;;1590.57;661.73;;;6.70;99.90;;;;;;5090893;28;20327;-50
2023/03/04 10:23:19;;;;;;;1191.40;475.23;;;6.70;99.90;;;;;;5089520;28;20307;-50
2023/03/04 10:25:52;;;;;;;1999.90;999.90;;;6.80;99.90;;;;;;5091950;28;20212;-51
2023/03/04 10:28:25;;;;;;;1999.90;938.73;;;6.80;99.90;;;;;;5088637;28;20231;-51
2023/03/04 10:30:59;;;;;;;1999.90;999.90;;;6.80;99.90;;;;;;5091358;28;20303;-51
2023/03/04 10:33:30;;;;;;;1999.90;876.27;;;6.90;99.90;;;;;;5088813;28;20223;-50
2023/03/04 10:36:02;;;;;;;982.07;599.07;;;7.10;99.90;;;;;;5096648;28;20258;-51
2023/03/04 10:38:32;;;;;;;1999.90;999.90;;;7.20;99.90;;;;;;5099742;28;20213;-50
2023/03/04 10:41:11;;;;;;;1830.77;709.77;;;7.30;99.90;;;;;;5091396;28;20661;-49
2023/03/04 10:43:39;;;;;;;1999.90;879.70;;;7.50;99.90;;;;;;5089766;28;20707;-50
2023/03/04 10:46:11;;;;;;;1999.90;978.90;;;7.60;99.90;;;;;;5089066;28;20204;-50
2023/03/04 10:48:42;;;;;;;1531.33;646.87;;;7.60;99.90;;;;;;5089228;28;20236;-50
2023/03/04 10:51:18;;;;;;;1999.90;999.90;;;7.60;99.90;;;;;;5089106;28;20230;-50
2023/03/04 10:53:47;;;;;;;1389.20;579.37;;;7.40;99.90;;;;;;5075654;28;20196;-51
2023/03/04 10:56:38;;;;;;;1999.90;818.37;;;7.30;99.90;;;;;;5089764;28;20208;-51
2023/03/04 10:59:34;;;;;;;488.47;290.83;;;7.20;99.90;;;;;;5095707;28;20196;-50
2023/03/04 11:02:20;;;;;;;1999.90;836.00;;;7.20;99.90;;;;;;5092429;28;20250;-50
2023/03/04 11:05:04;;;;;;;1255.20;606.07;;;7.20;99.90;;;;;;5090826;28;20206;-50
2023/03/04 11:07:36;;;;;;;1402.33;586.97;;;7.10;99.90;;;;;;5090906;28;20222;-49
2023/03/04 11:10:22;;;;;;;1999.90;564.53;;;7.10;99.90;;;;;;5090594;28;20802;-50
2023/03/04 11:12:56;;;;;;;938.47;392.77;;;7.20;99.90;;;;;;5090607;28;20299;-51
2023/03/04 11:15:26;;;;;;;1999.90;857.77;;;7.20;99.90;;;;;;5090626;28;20661;-50
2023/03/04 11:17:57;;;;;;;1999.90;650.67;;;7.40;99.90;;;;;;5080954;28;20291;-50
2023/03/04 11:20:30;;;;;;;1767.10;657.60;;;7.60;99.90;;;;;;5089884;28;20319;-49
2023/03/04 11:23:04;;;;;;;1999.90;884.57;;;7.90;99.90;;;;;;5090476;28;20258;-51
2023/03/04 11:25:35;;;;;;;1999.90;830.17;;;8.00;99.90;;;;;;5090749;28;20232;-51
2023/03/04 11:28:10;;;;;;;1999.90;729.73;;;7.90;99.90;;;;;;5091003;28;20208;-50
2023/03/04 11:30:43;;;;;;;1999.90;999.90;;;7.80;99.90;;;;;;5090082;28;20310;-50
2023/03/04 11:33:20;;;;;;;1999.90;918.10;;;7.80;99.90;;;;;;5100015;28;20287;-51
2023/03/04 11:35:58;;;;;;;1999.90;999.90;;;7.70;99.90;;;;;;5105364;28;20262;-50
2023/03/04 11:38:31;;;;;;;1999.90;999.90;;;7.60;99.90;;;;;;5089958;28;20733;-51
2023/03/04 11:41:03;;;;;;;1961.17;661.10;;;7.50;99.90;;;;;;5091577;28;20259;-51
2023/03/04 11:43:36;;;;;;;1999.90;785.37;;;7.60;99.90;;;;;;5073610;28;20224;-50
2023/03/04 11:46:36;;;;;;;1999.90;660.47;;;7.60;99.90;;;;;;5089316;28;20333;-51
2023/03/04 11:49:43;;;;;;;1999.90;977.37;;;7.80;99.90;;;;;;5088481;28;20235;-51
2023/03/04 11:52:22;;;;;;;1999.90;723.47;;;7.90;99.90;;;;;;5023566;28;20209;-51
2023/03/04 11:55:13;;;;;;;1999.90;913.73;;;8.00;99.90;;;;;;5076116;28;20235;-49
2023/03/04 11:57:50;;;;;;;1999.90;720.60;;;8.00;99.90;;;;;;5087728;28;20205;-50
2023/03/04 12:00:36;;;;;;;1999.90;903.10;;;8.10;99.90;;;;;;5086279;28;20664;-51
2023/03/04 12:03:24;;;;;;;1999.90;756.03;;;8.20;99.90;;;;;;5099507;28;20299;-50
2023/03/04 12:06:00;;;;;;;1999.90;980.97;;;8.30;99.90;;;;;;5091184;28;20219;-50
2023/03/04 12:08:39;;;;;;;1999.90;858.87;;;8.30;99.90;;;;;;5089664;28;20228;-50
2023/03/04 12:11:14;;;;;;;1999.90;926.10;;;8.20;99.90;;;;;;5087706;28;20285;-50
2023/03/04 12:14:17;;;;;;;1363.07;594.60;;;8.00;99.90;;;;;;5081669;28;20200;-50
2023/03/04 12:17:06;;;;;;;1902.17;717.50;;;8.00;99.90;;;;;;5075265;28;20324;-50
2023/03/04 12:19:49;;;;;;;1232.87;561.60;;;7.90;99.90;;;;;;5089154;28;20192;-50
2023/03/04 12:22:29;;;;;;;1999.90;753.17;;;7.90;99.90;;;;;;5089528;28;20208;-49
2023/03/04 12:25:18;;;;;;;1999.90;959.27;;;7.80;99.90;;;;;;5086956;28;20599;-50
2023/03/04 12:27:57;;;;;;;1999.90;936.03;;;7.80;99.90;;;;;;5089075;28;20219;-50
2023/03/04 12:30:40;;;;;;;1999.90;999.80;;;7.80;99.90;;;;;;5078665;28;20310;-50
2023/03/04 12:33:21;;;;;;;1999.90;733.70;;;7.70;99.90;;;;;;5089246;28;20291;-50